createdAt,value
2023-03-05T00:01:13.656Z,54.25
2023-03-05T00:03:40.565Z,54.07
2023-03-05T00:06:08.217Z,53.79
2023-03-05T00:08:35.071Z,54.02
2023-03-05T00:11:08.167Z,54.67
2023-03-05T00:13:35.442Z,54.17
2023-03-05T00:16:10.783Z,54.45
2023-03-05T00:18:38.564Z,54.41
2023-03-05T00:21:17.184Z,54.20
2023-03-05T00:23:44.106Z,53.89
2023-03-05T00:26:10.787Z,53.59
2023-03-05T00:28:38.157Z,54.69
2023-03-05T00:31:05.774Z,54.17
2023-03-05T00:33:32.601Z,54.07
2023-03-05T00:36:02.390Z,54.41
2023-03-05T00:38:29.169Z,54.47
2023-03-05T00:40:55.877Z,55.00
2023-03-05T00:43:22.537Z,55.32
2023-03-05T00:45:49.296Z,55.39
2023-03-05T00:48:15.904Z,55.22
2023-03-05T00:50:42.606Z,55.49
2023-03-05T00:53:09.235Z,55.35
2023-03-05T00:55:36.112Z,55.05
2023-03-05T00:58:03.082Z,55.45
2023-03-05T01:00:29.725Z,55.37
2023-03-05T01:02:56.449Z,55.25
2023-03-05T01:05:23.202Z,55.25
2023-03-05T01:07:53.825Z,55.30
2023-03-05T01:10:21.733Z,55.14
2023-03-05T01:12:48.343Z,56.12
2023-03-05T01:15:15.353Z,55.74
2023-03-05T01:17:42.030Z,55.60
2023-03-05T01:20:09.428Z,55.65
2023-03-05T01:22:36.041Z,55.67
2023-03-05T01:25:02.796Z,56.07
2023-03-05T01:27:29.429Z,55.67
2023-03-05T01:29:56.069Z,55.41
2023-03-05T01:32:22.862Z,55.70
2023-03-05T01:34:49.556Z,55.86
2023-03-05T01:37:16.307Z,56.24
2023-03-05T01:39:42.989Z,56.06
2023-03-05T01:42:09.869Z,55.62
2023-03-05T01:44:36.485Z,56.16
2023-03-05T01:47:03.250Z,55.91
2023-03-05T01:49:35.567Z,55.65
2023-03-05T01:52:17.948Z,55.45
2023-03-05T01:54:53.179Z,55.78
2023-03-05T01:57:31.980Z,55.71
2023-03-05T02:00:05.812Z,56.42
2023-03-05T02:02:40.869Z,56.31
2023-03-05T02:05:11.609Z,55.83
2023-03-05T02:07:40.118Z,56.02
2023-03-05T02:10:28.896Z,55.78
2023-03-05T02:12:59.206Z,56.54
2023-03-05T02:15:25.956Z,56.69
2023-03-05T02:17:52.616Z,56.64
2023-03-05T02:20:22.801Z,56.56
2023-03-05T02:22:49.807Z,56.71
2023-03-05T02:25:24.841Z,56.86
2023-03-05T02:27:57.597Z,57.07
2023-03-05T02:30:24.495Z,57.15
2023-03-05T02:32:51.527Z,56.88
2023-03-05T02:35:19.776Z,56.55
2023-03-05T02:37:46.540Z,56.41
2023-03-05T02:40:13.997Z,56.86
2023-03-05T02:42:42.032Z,57.62
2023-03-05T02:45:11.777Z,57.45
2023-03-05T02:47:38.764Z,57.52
2023-03-05T02:50:08.727Z,57.23
2023-03-05T02:52:36.444Z,57.56
2023-03-05T02:55:05.891Z,57.67
2023-03-05T02:57:32.668Z,57.92
2023-03-05T02:59:59.441Z,57.99
2023-03-05T03:02:26.128Z,57.67
2023-03-05T03:04:52.743Z,57.77
2023-03-05T03:07:19.601Z,57.34
2023-03-05T03:09:46.300Z,58.01
2023-03-05T03:12:13.150Z,57.75
2023-03-05T03:14:42.350Z,57.55
2023-03-05T03:17:14.917Z,57.47
2023-03-05T03:19:42.374Z,56.92
2023-03-05T03:22:10.232Z,57.39
2023-03-05T03:24:38.264Z,57.10
2023-03-05T03:27:05.322Z,57.73
2023-03-05T03:29:32.615Z,56.90
2023-03-05T03:31:59.695Z,57.55
2023-03-05T03:34:26.832Z,57.68
2023-03-05T03:36:53.983Z,58.06
2023-03-05T03:39:21.218Z,57.12
2023-03-05T03:41:50.916Z,58.05
2023-03-05T03:44:19.246Z,57.89
2023-03-05T03:46:47.492Z,58.33
2023-03-05T03:49:23.929Z,58.40
2023-03-05T03:51:52.439Z,57.66
2023-03-05T03:54:19.050Z,58.11
2023-03-05T03:56:45.929Z,58.42
2023-03-05T03:59:13.516Z,58.25
2023-03-05T04:01:40.852Z,58.42
2023-03-05T04:04:07.858Z,58.16
2023-03-05T04:06:35.140Z,58.57
2023-03-05T04:09:01.910Z,58.90
2023-03-05T04:11:28.592Z,58.51
2023-03-05T04:13:55.351Z,58.48
2023-03-05T04:16:22.236Z,58.68
2023-03-05T04:18:48.957Z,58.75
2023-03-05T04:21:15.660Z,58.95
2023-03-05T04:23:42.646Z,58.48
2023-03-05T04:26:09.356Z,58.68
2023-03-05T04:28:36.680Z,59.17
2023-03-05T04:31:04.231Z,58.75
2023-03-05T04:33:31.047Z,59.02
2023-03-05T04:35:57.890Z,59.20
2023-03-05T04:38:24.600Z,58.88
2023-03-05T04:40:51.207Z,59.14
2023-03-05T04:43:17.893Z,58.88
2023-03-05T04:45:44.678Z,59.46
2023-03-05T04:48:11.746Z,58.85
2023-03-05T04:50:38.653Z,59.28
2023-03-05T04:53:05.587Z,59.55
2023-03-05T04:55:32.303Z,59.70
2023-03-05T04:57:59.191Z,59.58
2023-03-05T05:00:26.022Z,59.17
2023-03-05T05:02:53.178Z,59.27
2023-03-05T05:05:23.759Z,59.24
2023-03-05T05:07:53.711Z,59.09
2023-03-05T05:10:20.386Z,59.47
2023-03-05T05:12:47.093Z,59.41
2023-03-05T05:15:13.973Z,59.28
2023-03-05T05:17:40.742Z,59.61
2023-03-05T05:20:08.746Z,59.80
2023-03-05T05:22:35.706Z,59.39
2023-03-05T05:25:02.615Z,59.58
2023-03-05T05:27:29.448Z,59.30
2023-03-05T05:29:56.294Z,59.21
2023-03-05T05:32:24.730Z,60.16
2023-03-05T05:34:56.761Z,59.64
2023-03-05T05:37:24.151Z,59.82
2023-03-05T05:39:51.312Z,59.59
2023-03-05T05:42:20.129Z,59.36
2023-03-05T05:44:47.583Z,59.26
2023-03-05T05:47:15.625Z,59.43
2023-03-05T05:49:42.580Z,59.67
2023-03-05T05:52:09.313Z,59.32
2023-03-05T05:54:36.110Z,58.89
2023-03-05T05:57:02.849Z,58.94
2023-03-05T05:59:29.685Z,58.22
2023-03-05T06:01:56.366Z,56.62
2023-03-05T06:04:23.150Z,56.95
2023-03-05T06:06:49.815Z,57.38
2023-03-05T06:09:16.778Z,57.75
2023-03-05T06:11:43.374Z,57.35
2023-03-05T06:14:12.039Z,57.21
2023-03-05T06:16:39.595Z,56.61
2023-03-05T06:19:06.384Z,55.96
2023-03-05T06:21:33.275Z,56.06
2023-03-05T06:24:00.020Z,56.13
2023-03-05T06:26:26.732Z,56.52
2023-03-05T06:28:53.802Z,56.00
2023-03-05T06:31:23.691Z,55.65
2023-03-05T06:33:50.527Z,55.80
2023-03-05T06:36:19.744Z,55.56
2023-03-05T06:38:48.486Z,56.16
2023-03-05T06:41:23.659Z,57.00
2023-03-05T06:43:50.457Z,57.83
2023-03-05T06:46:21.407Z,58.07
2023-03-05T06:48:48.376Z,58.31
2023-03-05T06:51:28.034Z,57.81
2023-03-05T06:53:56.081Z,57.87
2023-03-05T06:56:23.143Z,58.04
2023-03-05T06:58:52.940Z,56.86
2023-03-05T07:01:20.977Z,56.84
2023-03-05T07:03:52.741Z,56.29
2023-03-05T07:06:20.560Z,55.64
2023-03-05T07:08:47.530Z,56.74
2023-03-05T07:11:17.717Z,57.21
2023-03-05T07:13:47.564Z,57.12
2023-03-05T07:16:17.146Z,57.45
2023-03-05T07:18:44.188Z,57.49
2023-03-05T07:21:14.810Z,57.51
2023-03-05T07:23:41.544Z,57.74
2023-03-05T07:26:08.311Z,57.83
2023-03-05T07:28:35.063Z,57.66
2023-03-05T07:31:04.804Z,57.66
2023-03-05T07:33:32.182Z,57.62
2023-03-05T07:35:59.319Z,57.54
2023-03-05T07:38:25.996Z,57.23
2023-03-05T07:40:52.756Z,56.32
2023-03-05T07:43:19.445Z,56.92
2023-03-05T07:45:46.439Z,56.71
2023-03-05T07:48:20.747Z,55.60
2023-03-05T07:50:48.288Z,55.93
2023-03-05T07:53:15.761Z,55.38
2023-03-05T07:55:46.604Z,54.65
2023-03-05T07:58:14.032Z,55.21
2023-03-05T08:00:41.252Z,54.04
2023-03-05T08:03:08.008Z,53.77
2023-03-05T08:05:35.349Z,53.21
2023-03-05T08:08:02.019Z,53.15
2023-03-05T08:10:28.713Z,52.57
2023-03-05T08:12:55.492Z,51.99
2023-03-05T08:15:22.163Z,52.22
2023-03-05T08:17:48.905Z,52.19
2023-03-05T08:20:15.634Z,51.93
2023-03-05T08:22:42.465Z,51.68
2023-03-05T08:25:09.341Z,50.91
2023-03-05T08:27:40.264Z,51.33
2023-03-05T08:30:08.386Z,51.50
2023-03-05T08:32:35.170Z,50.68
2023-03-05T08:35:04.119Z,51.17
2023-03-05T08:37:31.280Z,51.21
2023-03-05T08:39:58.150Z,50.59
2023-03-05T08:42:25.594Z,49.64
2023-03-05T08:44:52.216Z,50.34
2023-03-05T08:47:20.361Z,49.25
2023-03-05T08:49:47.433Z,49.21
2023-03-05T08:52:14.097Z,48.55
2023-03-05T08:54:40.744Z,48.21
2023-03-05T08:57:08.218Z,48.71
2023-03-05T08:59:34.888Z,49.38
2023-03-05T09:02:02.750Z,48.09
2023-03-05T09:04:29.506Z,48.20
2023-03-05T09:06:57.477Z,47.96
2023-03-05T09:09:24.762Z,47.87
2023-03-05T09:11:51.979Z,47.74
2023-03-05T09:14:18.715Z,47.52
2023-03-05T09:16:45.455Z,47.49
2023-03-05T09:19:13.022Z,47.41
2023-03-05T09:21:39.675Z,47.79
2023-03-05T09:24:06.679Z,47.26
2023-03-05T09:26:33.370Z,46.91
2023-03-05T09:29:00.057Z,47.49
2023-03-05T09:31:26.826Z,47.88
2023-03-05T09:33:53.501Z,47.37
2023-03-05T09:36:23.707Z,47.35
2023-03-05T09:38:50.857Z,47.46
2023-03-05T09:41:20.297Z,47.42
2023-03-05T09:44:06.182Z,46.68
2023-03-05T09:46:55.347Z,47.05
2023-03-05T09:49:40.042Z,47.26
2023-03-05T09:52:21.123Z,46.18
2023-03-05T09:54:57.059Z,46.63
2023-03-05T09:57:39.118Z,46.85
2023-03-05T10:00:21.047Z,46.57
2023-03-05T10:02:53.540Z,46.93
2023-03-05T10:05:45.863Z,46.30
2023-03-05T10:08:14.442Z,47.16
2023-03-05T10:10:45.595Z,45.94
2023-03-05T10:13:22.032Z,46.54
2023-03-05T10:16:06.096Z,46.02
2023-03-05T10:18:51.569Z,45.12
2023-03-05T10:21:32.561Z,45.43
2023-03-05T10:24:16.040Z,45.79
2023-03-05T10:27:14.163Z,45.95
2023-03-05T10:30:16.345Z,45.82
2023-03-05T10:32:58.253Z,45.31
2023-03-05T10:35:52.879Z,46.28
2023-03-05T10:38:36.063Z,46.16
2023-03-05T10:41:12.401Z,45.63
2023-03-05T10:43:53.225Z,46.33
2023-03-05T10:46:22.572Z,46.64
2023-03-05T10:48:54.625Z,46.98
2023-03-05T10:51:31.419Z,46.28
2023-03-05T10:54:01.924Z,46.99
2023-03-05T10:56:29.388Z,47.13
2023-03-05T10:58:56.047Z,46.65
2023-03-05T11:01:28.307Z,47.06
2023-03-05T11:04:04.687Z,47.11
2023-03-05T11:06:41.825Z,47.17
2023-03-05T11:09:29.815Z,47.09
2023-03-05T11:12:27.338Z,47.74
2023-03-05T11:15:25.142Z,47.66
2023-03-05T11:18:07.965Z,47.72
2023-03-05T11:20:36.147Z,47.72
2023-03-05T11:23:05.836Z,48.44
2023-03-05T11:25:49.060Z,47.69
2023-03-05T11:28:32.259Z,47.66
2023-03-05T11:31:22.118Z,48.10
2023-03-05T11:34:01.178Z,47.99
2023-03-05T11:36:29.605Z,48.33
2023-03-05T11:39:07.528Z,48.71
2023-03-05T11:41:48.507Z,48.82
2023-03-05T11:44:21.634Z,47.90
2023-03-05T11:46:52.638Z,47.49
2023-03-05T11:49:23.178Z,47.48
2023-03-05T11:52:11.156Z,47.79
2023-03-05T11:54:54.973Z,46.98
2023-03-05T11:57:24.017Z,46.50
2023-03-05T11:59:55.125Z,46.12
2023-03-05T12:02:27.900Z,46.24
2023-03-05T12:04:56.000Z,46.81
2023-03-05T12:07:33.302Z,47.16
2023-03-05T12:10:01.873Z,46.94
2023-03-05T12:12:52.953Z,46.76
2023-03-05T12:15:47.723Z,46.96
2023-03-05T12:18:38.491Z,46.72
2023-03-05T12:21:15.332Z,46.84
2023-03-05T12:23:52.590Z,46.22
2023-03-05T12:26:59.311Z,45.83
2023-03-05T12:29:49.182Z,46.68
2023-03-05T12:32:22.131Z,46.61
2023-03-05T12:34:56.211Z,46.51
2023-03-05T12:37:23.591Z,46.09
2023-03-05T12:40:07.715Z,46.57
2023-03-05T12:42:34.317Z,47.23
2023-03-05T12:45:09.990Z,48.95
2023-03-05T12:47:40.774Z,48.41
2023-03-05T12:50:29.297Z,49.74
2023-03-05T12:53:11.180Z,49.83
2023-03-05T12:56:13.070Z,49.38
2023-03-05T12:58:45.209Z,50.20
2023-03-05T13:01:11.872Z,49.88
2023-03-05T13:04:00.192Z,50.10
2023-03-05T13:06:30.006Z,50.70
2023-03-05T13:08:59.497Z,49.93
2023-03-05T13:11:28.384Z,50.32
2023-03-05T13:13:55.608Z,50.12
2023-03-05T13:16:29.048Z,49.82
2023-03-05T13:19:01.088Z,49.23
2023-03-05T13:21:30.790Z,49.79
2023-03-05T13:24:00.302Z,49.53
2023-03-05T13:26:29.798Z,50.16
2023-03-05T13:29:16.787Z,47.04
2023-03-05T13:31:47.455Z,47.80
2023-03-05T13:34:40.817Z,49.42
2023-03-05T13:37:20.323Z,50.34
2023-03-05T13:39:50.613Z,50.15
2023-03-05T13:42:22.760Z,50.77
2023-03-05T13:45:00.620Z,48.97
2023-03-05T13:47:32.660Z,47.78
2023-03-05T13:50:06.975Z,45.67
2023-03-05T13:52:36.424Z,44.61
2023-03-05T13:55:12.102Z,43.74
2023-03-05T13:57:42.455Z,44.01
2023-03-05T14:00:32.018Z,42.89
2023-03-05T14:03:08.765Z,42.52
2023-03-05T14:05:35.636Z,42.34
2023-03-05T14:08:03.105Z,42.38
2023-03-05T14:10:32.812Z,41.59
2023-03-05T14:13:04.806Z,42.17
2023-03-05T14:15:34.567Z,42.47
2023-03-05T14:18:11.040Z,41.38
2023-03-05T14:20:39.383Z,41.44
2023-03-05T14:23:27.287Z,41.61
2023-03-05T14:26:16.048Z,41.18
2023-03-05T14:28:42.748Z,40.94
2023-03-05T14:31:18.031Z,41.07
2023-03-05T14:33:45.232Z,39.69
2023-03-05T14:36:13.440Z,38.94
2023-03-05T14:38:42.789Z,39.10
2023-03-05T14:41:39.528Z,38.55
2023-03-05T14:44:12.698Z,37.28
2023-03-05T14:46:39.977Z,37.34
2023-03-05T14:49:07.064Z,37.27
2023-03-05T14:51:38.386Z,37.01
2023-03-05T14:54:05.159Z,36.93
2023-03-05T14:56:33.404Z,36.77
2023-03-05T14:59:00.025Z,37.69
2023-03-05T15:01:26.782Z,37.76
2023-03-05T15:03:53.549Z,37.27
2023-03-05T15:06:51.201Z,37.84
2023-03-05T15:09:19.793Z,38.27
2023-03-05T15:11:47.244Z,38.21
2023-03-05T15:14:13.904Z,38.73
2023-03-05T15:16:43.831Z,38.50
2023-03-05T15:19:13.839Z,38.85
2023-03-05T15:21:40.959Z,39.19
2023-03-05T15:24:10.195Z,39.29
2023-03-05T15:26:37.581Z,39.18
2023-03-05T15:29:05.071Z,39.38
2023-03-05T15:31:38.257Z,39.47
2023-03-05T15:34:05.497Z,39.12
2023-03-05T15:36:33.767Z,39.37
2023-03-05T15:39:00.596Z,40.19
2023-03-05T15:41:27.358Z,39.50
2023-03-05T15:43:54.135Z,39.45
2023-03-05T15:46:20.871Z,39.74
2023-03-05T15:48:50.096Z,39.97
2023-03-05T15:51:17.680Z,40.43
2023-03-05T15:53:46.335Z,39.91
2023-03-05T15:56:18.387Z,40.51
2023-03-05T15:58:45.344Z,40.21
2023-03-05T16:01:12.911Z,40.12
2023-03-05T16:03:39.694Z,40.64
2023-03-05T16:06:08.240Z,41.19
2023-03-05T16:08:36.839Z,39.66
2023-03-05T16:11:04.374Z,39.20
2023-03-05T16:13:32.385Z,39.62
2023-03-05T16:15:59.239Z,39.92
2023-03-05T16:18:26.538Z,40.60
2023-03-05T16:20:53.531Z,40.73
2023-03-05T16:23:21.578Z,40.78
2023-03-05T16:25:48.381Z,41.12
2023-03-05T16:28:15.357Z,41.35
2023-03-05T16:30:42.418Z,41.57
2023-03-05T16:33:09.709Z,40.62
2023-03-05T16:35:36.492Z,40.15
2023-03-05T16:38:03.706Z,40.37
2023-03-05T16:40:56.669Z,40.69
2023-03-05T16:43:18.019Z,40.56
2023-03-05T16:45:44.705Z,40.21
2023-03-05T16:48:11.330Z,39.70
2023-03-05T16:50:37.996Z,40.13
2023-03-05T16:53:04.704Z,40.70
2023-03-05T16:55:31.895Z,40.75
2023-03-05T16:57:58.625Z,41.77
2023-03-05T17:00:25.387Z,41.18
2023-03-05T17:02:52.015Z,42.31
2023-03-05T17:05:19.029Z,41.60
2023-03-05T17:07:45.729Z,41.33
2023-03-05T17:10:12.646Z,41.91
2023-03-05T17:12:39.419Z,41.61
2023-03-05T17:15:07.060Z,42.03
2023-03-05T17:17:33.800Z,43.58
2023-03-05T17:20:00.473Z,43.68
2023-03-05T17:22:27.179Z,44.17
2023-03-05T17:24:53.855Z,44.90
2023-03-05T17:27:22.639Z,44.66
2023-03-05T17:29:49.365Z,44.76
2023-03-05T17:32:16.135Z,44.93
2023-03-05T17:34:43.329Z,45.08
2023-03-05T17:37:10.031Z,45.27
2023-03-05T17:39:38.403Z,44.80
2023-03-05T17:42:05.213Z,44.19
2023-03-05T17:44:32.033Z,44.12
2023-03-05T17:46:58.702Z,44.83
2023-03-05T17:49:25.645Z,45.08
2023-03-05T17:51:52.352Z,44.45
2023-03-05T17:54:19.025Z,44.60
2023-03-05T17:56:47.972Z,44.36
2023-03-05T17:59:16.233Z,44.47
2023-03-05T18:01:42.865Z,44.20
2023-03-05T18:04:11.093Z,44.40
2023-03-05T18:06:37.842Z,44.60
2023-03-05T18:09:04.659Z,45.52
2023-03-05T18:11:31.331Z,44.84
2023-03-05T18:13:58.111Z,44.87
2023-03-05T18:16:25.213Z,45.10
2023-03-05T18:18:52.757Z,45.71
2023-03-05T18:21:25.084Z,46.08
2023-03-05T18:23:52.268Z,46.22
2023-03-05T18:26:19.043Z,45.82
2023-03-05T18:28:45.727Z,46.39
2023-03-05T18:31:12.496Z,46.37
2023-03-05T18:33:39.172Z,46.89
2023-03-05T18:36:06.224Z,46.52
2023-03-05T18:38:33.309Z,46.82
2023-03-05T18:41:02.867Z,47.30
2023-03-05T18:43:29.563Z,47.21
2023-03-05T18:45:56.827Z,47.75
2023-03-05T18:48:23.634Z,47.91
2023-03-05T18:50:51.894Z,48.09
2023-03-05T18:53:19.284Z,48.77
2023-03-05T18:55:45.984Z,48.09
2023-03-05T18:58:14.230Z,48.21
2023-03-05T19:00:42.408Z,48.67
2023-03-05T19:03:10.256Z,49.01
2023-03-05T19:05:38.038Z,48.75
2023-03-05T19:08:05.054Z,48.82
2023-03-05T19:10:32.781Z,49.32
2023-03-05T19:13:22.997Z,49.10
2023-03-05T19:15:49.685Z,49.38
2023-03-05T19:18:18.505Z,49.39
2023-03-05T19:20:45.149Z,49.52
2023-03-05T19:23:11.774Z,49.12
2023-03-05T19:25:40.226Z,49.31
2023-03-05T19:28:06.957Z,49.83
2023-03-05T19:30:33.675Z,49.30
2023-03-05T19:33:00.405Z,49.54
2023-03-05T19:35:27.078Z,49.99
2023-03-05T19:37:53.996Z,50.16
2023-03-05T19:40:20.932Z,49.65
2023-03-05T19:42:47.640Z,50.00
2023-03-05T19:45:14.456Z,50.46
2023-03-05T19:47:41.122Z,50.68
2023-03-05T19:50:08.297Z,49.79
2023-03-05T19:52:34.993Z,50.25
2023-03-05T19:55:01.752Z,50.33
2023-03-05T19:57:28.600Z,50.77
2023-03-05T19:59:55.427Z,50.45
2023-03-05T20:02:22.216Z,49.75
2023-03-05T20:04:49.502Z,50.27
2023-03-05T20:07:16.425Z,50.89
2023-03-05T20:09:43.121Z,50.34
2023-03-05T20:12:10.311Z,50.77
2023-03-05T20:14:37.079Z,50.38
2023-03-05T20:17:03.757Z,50.81
2023-03-05T20:19:30.475Z,50.05
2023-03-05T20:21:57.231Z,50.58
2023-03-05T20:24:23.920Z,50.59
2023-03-05T20:26:50.563Z,50.58
2023-03-05T20:29:18.644Z,50.28
2023-03-05T20:31:46.244Z,50.45
2023-03-05T20:34:16.230Z,50.48
2023-03-05T20:36:43.550Z,50.68
2023-03-05T20:39:10.558Z,51.13
2023-03-05T20:41:39.389Z,50.96
2023-03-05T20:44:07.005Z,51.08
2023-03-05T20:46:36.694Z,51.38
2023-03-05T20:49:04.711Z,51.29
2023-03-05T20:51:36.775Z,51.38
2023-03-05T20:54:09.945Z,51.01
2023-03-05T20:56:37.258Z,51.40
2023-03-05T20:59:07.367Z,50.98
2023-03-05T21:01:35.553Z,51.30
2023-03-05T21:04:03.874Z,51.50
2023-03-05T21:06:32.510Z,51.90
2023-03-05T21:08:59.846Z,51.11
2023-03-05T21:11:26.812Z,51.23
2023-03-05T21:13:53.609Z,51.33
2023-03-05T21:16:23.499Z,51.68
2023-03-05T21:18:51.245Z,51.79
2023-03-05T21:21:18.741Z,51.67
2023-03-05T21:23:46.095Z,51.19
2023-03-05T21:26:13.581Z,51.48
2023-03-05T21:28:40.772Z,50.95
2023-03-05T21:31:11.486Z,51.12
2023-03-05T21:33:38.514Z,51.48
2023-03-05T21:36:05.664Z,51.53
2023-03-05T21:38:34.033Z,52.06
2023-03-05T21:41:02.299Z,51.43
2023-03-05T21:43:31.099Z,51.39
2023-03-05T21:46:00.605Z,51.80
2023-03-05T21:48:27.594Z,51.67
2023-03-05T21:50:55.186Z,51.16
2023-03-05T21:53:22.169Z,51.73
2023-03-05T21:56:15.344Z,51.52
2023-03-05T21:58:42.021Z,51.16
2023-03-05T22:01:11.174Z,51.67
2023-03-05T22:03:38.244Z,51.56
2023-03-05T22:06:09.884Z,51.41
2023-03-05T22:08:36.746Z,51.92
2023-03-05T22:11:09.265Z,51.98
2023-03-05T22:13:36.851Z,51.89
2023-03-05T22:16:04.142Z,52.22
2023-03-05T22:18:32.471Z,51.91
2023-03-05T22:20:59.906Z,51.71
2023-03-05T22:23:29.814Z,51.83
2023-03-05T22:26:06.023Z,51.50
2023-03-05T22:28:34.151Z,51.63
2023-03-05T22:31:01.990Z,51.64
2023-03-05T22:33:29.343Z,51.65
2023-03-05T22:35:56.022Z,51.95
2023-03-05T22:38:23.526Z,51.86
2023-03-05T22:40:51.065Z,51.61
2023-03-05T22:43:19.177Z,52.38
2023-03-05T22:45:45.917Z,52.31
2023-03-05T22:48:12.769Z,52.58
2023-03-05T22:50:40.763Z,52.65
2023-03-05T22:53:07.738Z,52.32
2023-03-05T22:55:34.690Z,52.24
2023-03-05T22:58:01.322Z,52.28
2023-03-05T23:00:27.962Z,52.50
2023-03-05T23:02:54.727Z,52.36
2023-03-05T23:05:21.787Z,52.74
2023-03-05T23:07:49.175Z,53.22
2023-03-05T23:10:19.199Z,52.64
2023-03-05T23:12:49.882Z,53.17
2023-03-05T23:15:25.819Z,53.01
2023-03-05T23:17:52.511Z,53.33
2023-03-05T23:20:22.202Z,52.73
2023-03-05T23:22:49.644Z,53.31
2023-03-05T23:25:16.758Z,53.33
2023-03-05T23:27:43.884Z,54.00
2023-03-05T23:30:20.915Z,54.28
2023-03-05T23:32:49.293Z,53.55
2023-03-05T23:35:19.103Z,54.10
2023-03-05T23:37:46.356Z,53.52
2023-03-05T23:40:17.363Z,53.28
2023-03-05T23:42:44.285Z,53.89
2023-03-05T23:45:12.926Z,53.63
2023-03-05T23:47:40.301Z,53.97
2023-03-05T23:50:09.759Z,53.47
2023-03-05T23:52:36.606Z,53.38
2023-03-05T23:55:03.487Z,53.24
2023-03-05T23:57:30.306Z,53.37
2023-03-05T23:59:56.948Z,52.83
